Airfield :
LOGIN :

Register | Disclaimer

   EN    FR    IT 

 










Legend :    VFR   Marginal VFR   IFR   Intensive IFR   Very Intensive IFR
Visi :
Ceiling :
>= 8 km
>= 3000ft
5 to 8 km
1000 to 3000 ft
1500m to 5 km
500 to 1000 ft
800 to 1500m
200 to 500 ft
< 800m
< 200 ft
Symbols :   Thunderstorms  Fog  Heavy snow  Heavy precipitations  Wind > 20 kt
SIGMETs :     Misc.  Thunderstorms  Icing  Turbulence  Mountain Waves  Volcanic Ashes






- Airport Elevation : 686 ft


LYKV - Ladevci

CURRENT METAR :
  • 231600Z 25004KT 220V280 9999 FEW043 24/14 Q1011 NOSIG

EXPIRED METARs :
  • 231530Z 24004KT 200V280 9999 SCT040 24/14 Q1011 NOSIG
  • 231500Z VRB01KT 9999 SCT040 24/18 Q1011 NOSIG
  • 231430Z VRB01KT 9999 SCT040 23/18 Q1011 NOSIG
  • 231400Z 00000KT 9999 FEW033 SCT040 24/18 Q1011 NOSIG
  • 231330Z VRB02KT 9999 FEW033 SCT040 23/18 Q1011 NOSIG

TAF TAF LYKV
Valid from the 23 at 12:00 until the 24 at 12:00 UTC


231100Z 2312/2412 14005KT 9999 SCT040 TX28/2313Z TN10/2304Z
PROB40
TEMPO 2313/2319 5000 SHRA SCT030TCU SCT040



MET'MAP, your aeronautical weather chart ! - Copyright ORBIFLY December 2007 - Disclaimer

ORBIFLY MET'MAP TEAM :

Programming & Development : Alexandra Zaïnal
Concept & original design : Baudouin d'Aumeries
Assistance for programming : Marc-Olivier Méhu
Technical & hardware support : Manuel Goepfert

Contact : metmap@orbifly.com




SOURCES & CREDITS :

   NOAA